Time,TemperatureF,DewpointF,PressureIn,WindDirection,WindDirectionDegrees,WindSpeedMPH,WindSpeedGustMPH,Humidity,HourlyPrecipIn,Conditions,Clouds,dailyrainin,SoftwareType,DateUTC
2013-04-12 00:00:00,58.1,57.8,29.66,WNW,284,0.0,1.0,99,0.00,,,0.00,Wunderground v.1.15,2013-04-12 04:00:00,
2013-04-12 00:02:00,58.1,57.8,29.66,WNW,284,0.0,1.0,99,0.00,,,0.00,Wunderground v.1.15,2013-04-12 04:02:00,
2013-04-12 00:08:00,58.1,58.1,29.66,ENE,76,0.0,7.0,100,0.00,,,0.00,Wunderground v.1.15,2013-04-12 04:08:00,
2013-04-12 00:13:00,58.0,58.0,29.64,ENE,76,0.0,7.0,100,0.00,,,0.00,Wunderground v.1.15,2013-04-12 04:13:00,
2013-04-12 00:19:00,58.0,58.0,29.64,ENE,76,2.0,2.0,100,0.00,,,0.00,Wunderground v.1.15,2013-04-12 04:19:00,
2013-04-12 00:26:00,58.0,58.0,29.64,ENE,76,0.0,1.0,100,0.00,,,0.00,Wunderground v.1.15,2013-04-12 04:26:00,
2013-04-12 00:32:00,57.8,57.8,29.65,SW,229,5.0,5.0,100,0.00,,,0.00,Wunderground v.1.15,2013-04-12 04:32:00,
2013-04-12 00:37:00,57.8,57.8,29.65,WSW,253,8.0,8.0,100,0.00,,,0.00,Wunderground v.1.15,2013-04-12 04:37:00,
2013-04-12 00:43:00,57.6,57.6,29.66,WSW,256,3.0,8.0,100,0.00,,,0.00,Wunderground v.1.15,2013-04-12 04:43:00,
2013-04-12 00:48:00,57.5,57.5,29.66,WSW,240,5.0,7.0,100,0.00,,,0.00,Wunderground v.1.15,2013-04-12 04:48:00,
2013-04-12 00:55:00,57.3,57.3,29.66,WSW,256,1.0,13.0,100,0.00,,,0.00,Wunderground v.1.15,2013-04-12 04:55:00,
2013-04-12 01:02:00,57.2,57.2,29.65,West,270,4.0,7.0,100,0.00,,,0.00,Wunderground v.1.15,2013-04-12 05:02:00,
2013-04-12 01:07:00,57.0,57.0,29.65,SSW,200,5.0,6.0,100,0.00,,,0.00,Wunderground v.1.15,2013-04-12 05:07:00,
2013-04-12 01:12:00,57.0,57.0,29.65,West,265,2.0,6.0,100,0.00,,,0.00,Wunderground v.1.15,2013-04-12 05:12:00,
2013-04-12 01:17:00,57.0,57.0,29.64,West,264,1.0,2.0,100,0.00,,,0.00,Wunderground v.1.15,2013-04-12 05:17:00,
2013-04-12 01:23:00,57.0,57.0,29.64,WSW,243,0.0,3.0,100,0.00,,,0.00,Wunderground v.1.15,2013-04-12 05:23:00,
2013-04-12 01:29:00,57.0,57.0,29.62,WSW,240,0.0,1.0,100,0.00,,,0.00,Wunderground v.1.15,2013-04-12 05:29:00,
2013-04-12 01:35:00,57.0,57.0,29.62,SSE,150,2.0,2.0,100,0.00,,,0.00,Wunderground v.1.15,2013-04-12 05:35:00,
2013-04-12 01:41:00,56.9,56.9,29.62,SSW,200,2.0,2.0,100,0.00,,,0.00,Wunderground v.1.15,2013-04-12 05:41:00,
2013-04-12 01:46:00,56.9,56.9,29.59,SSW,202,3.0,3.0,100,0.00,,,0.00,Wunderground v.1.15,2013-04-12 05:46:00,
2013-04-12 01:51:00,56.7,56.7,29.59,WSW,239,7.0,7.0,100,0.00,,,0.00,Wunderground v.1.15,2013-04-12 05:51:00,
2013-04-12 01:57:00,56.7,56.7,29.59,WSW,253,8.0,8.0,100,0.00,,,0.00,Wunderground v.1.15,2013-04-12 05:57:00,
2013-04-12 02:03:00,56.7,56.7,29.61,SW,236,6.0,12.0,100,0.00,,,0.00,Wunderground v.1.15,2013-04-12 06:03:00,
2013-04-12 02:08:00,56.7,56.7,29.61,WSW,244,12.0,19.0,100,0.00,,,0.00,Wunderground v.1.15,2013-04-12 06:08:00,
2013-04-12 02:13:00,56.7,56.7,29.61,WSW,257,6.0,19.0,100,0.00,,,0.00,Wunderground v.1.15,2013-04-12 06:13:00,
2013-04-12 02:18:00,56.6,56.6,29.61,WSW,254,6.0,12.0,100,0.00,,,0.00,Wunderground v.1.15,2013-04-12 06:18:00,
2013-04-12 02:23:00,56.6,56.6,29.61,WSW,248,10.0,15.0,100,0.00,,,0.00,Wunderground v.1.15,2013-04-12 06:23:00,
2013-04-12 02:29:00,56.6,56.3,29.61,South,189,8.0,16.0,99,0.00,,,0.00,Wunderground v.1.15,2013-04-12 06:29:00,
2013-04-12 02:34:00,56.6,56.3,29.61,West,261,3.0,16.0,99,0.00,,,0.00,Wunderground v.1.15,2013-04-12 06:34:00,
2013-04-12 02:39:00,56.7,56.4,29.61,SW,227,12.0,13.0,99,0.00,,,0.00,Wunderground v.1.15,2013-04-12 06:39:00,
2013-04-12 02:45:00,56.7,56.1,29.60,WSW,239,8.0,17.0,98,0.00,,,0.00,Wunderground v.1.15,2013-04-12 06:45:00,
2013-04-12 02:50:00,56.7,56.1,29.60,West,261,16.0,16.0,98,0.00,,,0.00,Wunderground v.1.15,2013-04-12 06:50:00,
2013-04-12 02:56:00,56.9,56.3,29.60,SSW,213,17.0,17.0,98,0.00,,,0.00,Wunderground v.1.15,2013-04-12 06:56:00,
2013-04-12 03:01:00,56.9,56.3,29.60,SSW,210,13.0,21.0,98,0.00,,,0.00,Wunderground v.1.15,2013-04-12 07:01:00,
2013-04-12 03:06:00,56.9,56.3,29.60,SW,229,6.0,11.0,98,0.00,,,0.00,Wunderground v.1.15,2013-04-12 07:06:00,
2013-04-12 03:12:00,57.0,56.4,29.60,WSW,250,11.0,14.0,98,0.00,,,0.00,Wunderground v.1.15,2013-04-12 07:12:00,
2013-04-12 03:17:00,57.2,56.6,29.58,WSW,254,11.0,11.0,98,0.00,,,0.00,Wunderground v.1.15,2013-04-12 07:17:00,
2013-04-12 03:22:00,57.3,57.0,29.58,SSW,212,11.0,17.0,99,0.00,,,0.00,Wunderground v.1.15,2013-04-12 07:22:00,
2013-04-12 03:27:00,57.5,57.2,29.58,WSW,240,16.0,16.0,99,0.00,,,0.00,Wunderground v.1.15,2013-04-12 07:27:00,
2013-04-12 03:33:00,57.5,57.2,29.56,SW,216,14.0,18.0,99,0.00,,,0.00,Wunderground v.1.15,2013-04-12 07:33:00,
2013-04-12 03:38:00,57.8,57.5,29.56,SSW,210,17.0,22.0,99,0.00,,,0.00,Wunderground v.1.15,2013-04-12 07:38:00,
2013-04-12 03:43:00,57.8,57.5,29.56,West,275,15.0,22.0,99,0.00,,,0.00,Wunderground v.1.15,2013-04-12 07:43:00,
2013-04-12 03:48:00,58.0,57.7,29.56,SW,227,14.0,19.0,99,0.00,,,0.00,Wunderground v.1.15,2013-04-12 07:48:00,
2013-04-12 03:54:00,58.0,57.7,29.56,West,260,11.0,19.0,99,0.00,,,0.00,Wunderground v.1.15,2013-04-12 07:54:00,
2013-04-12 03:59:00,58.1,58.1,29.56,SW,219,20.0,20.0,100,0.00,,,0.00,Wunderground v.1.15,2013-04-12 07:59:00,
2013-04-12 04:04:00,58.3,58.3,29.56,WSW,243,14.0,14.0,100,0.00,,,0.00,Wunderground v.1.15,2013-04-12 08:04:00,
2013-04-12 04:09:00,58.3,58.3,29.56,SSW,213,13.0,18.0,100,0.00,,,0.00,Wunderground v.1.15,2013-04-12 08:09:00,
2013-04-12 04:16:00,58.4,58.4,29.55,WSW,239,11.0,12.0,100,0.00,,,0.00,Wunderground v.1.15,2013-04-12 08:16:00,
2013-04-12 04:21:00,58.4,58.4,29.55,WSW,247,18.0,18.0,100,0.00,,,0.00,Wunderground v.1.15,2013-04-12 08:21:00,
2013-04-12 04:26:00,58.4,58.4,29.55,WSW,240,19.0,22.0,100,0.00,,,0.00,Wunderground v.1.15,2013-04-12 08:26:00,
2013-04-12 04:31:00,58.4,58.1,29.55,WSW,240,14.0,22.0,99,0.00,,,0.00,Wunderground v.1.15,2013-04-12 08:31:00,
2013-04-12 04:37:00,58.6,58.3,29.55,West,271,11.0,13.0,99,0.00,,,0.00,Wunderground v.1.15,2013-04-12 08:37:00,
2013-04-12 04:42:00,58.6,58.6,29.55,WSW,251,14.0,18.0,100,0.00,,,0.00,Wunderground v.1.15,2013-04-12 08:42:00,
2013-04-12 04:47:00,58.6,58.3,29.55,West,275,22.0,22.0,99,0.00,,,0.00,Wunderground v.1.15,2013-04-12 08:47:00,
2013-04-12 04:52:00,58.6,58.3,29.55,WSW,254,11.0,24.0,99,0.00,,,0.00,Wunderground v.1.15,2013-04-12 08:52:00,
2013-04-12 04:57:00,58.7,58.4,29.55,WSW,248,22.0,22.0,99,0.00,,,0.00,Wunderground v.1.15,2013-04-12 08:57:00,
2013-04-12 05:03:00,58.7,58.4,29.55,West,274,16.0,24.0,99,0.00,,,0.00,Wunderground v.1.15,2013-04-12 09:03:00,
2013-04-12 05:08:00,58.7,58.4,29.55,West,277,6.0,18.0,99,0.00,,,0.00,Wunderground v.1.15,2013-04-12 09:08:00,
2013-04-12 05:13:00,58.7,58.4,29.56,WSW,246,18.0,19.0,99,0.00,,,0.00,Wunderground v.1.15,2013-04-12 09:13:00,
2013-04-12 05:18:00,58.7,58.4,29.56,WSW,248,6.0,12.0,99,0.00,,,0.00,Wunderground v.1.15,2013-04-12 09:18:00,
2013-04-12 05:23:00,58.7,58.4,29.56,SW,227,6.0,12.0,99,0.00,,,0.00,Wunderground v.1.15,2013-04-12 09:23:00,
2013-04-12 05:28:00,58.6,58.3,29.57,WSW,251,5.0,10.0,99,0.00,,,0.00,Wunderground v.1.15,2013-04-12 09:28:00,
2013-04-12 05:33:00,58.6,58.3,29.57,WSW,251,8.0,11.0,99,0.00,,,0.00,Wunderground v.1.15,2013-04-12 09:33:00,
2013-04-12 05:38:00,58.4,58.1,29.57,SW,226,3.0,6.0,99,0.00,,,0.00,Wunderground v.1.15,2013-04-12 09:38:00,
2013-04-12 05:43:00,58.4,58.1,29.57,SW,226,5.0,11.0,99,0.00,,,0.00,Wunderground v.1.15,2013-04-12 09:43:00,
2013-04-12 05:49:00,58.4,58.1,29.57,SSW,213,3.0,5.0,99,0.00,,,0.00,Wunderground v.1.15,2013-04-12 09:49:00,
2013-04-12 05:56:00,58.4,58.1,29.57,WSW,258,7.0,7.0,99,0.00,,,0.00,Wunderground v.1.15,2013-04-12 09:56:00,
2013-04-12 06:01:00,58.4,58.1,29.57,WSW,254,6.0,8.0,99,0.00,,,0.00,Wunderground v.1.15,2013-04-12 10:01:00,
2013-04-12 06:06:00,58.4,58.1,29.57,SW,229,2.0,9.0,99,0.00,,,0.00,Wunderground v.1.15,2013-04-12 10:06:00,
2013-04-12 06:12:00,58.4,58.1,29.57,SW,224,3.0,11.0,99,0.00,,,0.00,Wunderground v.1.15,2013-04-12 10:12:00,
2013-04-12 06:17:00,58.3,58.0,29.58,West,268,7.0,13.0,99,0.00,,,0.00,Wunderground v.1.15,2013-04-12 10:17:00,
2013-04-12 06:22:00,58.1,57.8,29.58,WSW,243,6.0,13.0,99,0.00,,,0.00,Wunderground v.1.15,2013-04-12 10:22:00,
2013-04-12 06:28:00,58.0,57.7,29.58,SSW,212,6.0,8.0,99,0.00,,,0.00,Wunderground v.1.15,2013-04-12 10:28:00,
2013-04-12 06:33:00,57.6,57.0,29.58,WSW,237,6.0,14.0,98,0.00,,,0.00,Wunderground v.1.15,2013-04-12 10:33:00,
2013-04-12 06:38:00,57.6,57.0,29.58,SW,227,9.0,12.0,98,0.00,,,0.00,Wunderground v.1.15,2013-04-12 10:38:00,
2013-04-12 06:43:00,57.6,57.0,29.59,WSW,251,8.0,16.0,98,0.00,,,0.00,Wunderground v.1.15,2013-04-12 10:43:00,
2013-04-12 06:48:00,57.5,56.7,29.59,West,267,6.0,7.0,97,0.00,,,0.00,Wunderground v.1.15,2013-04-12 10:48:00,
2013-04-12 06:53:00,57.3,56.2,29.59,West,260,11.0,11.0,96,0.00,,,0.00,Wunderground v.1.15,2013-04-12 10:53:00,
2013-04-12 06:58:00,57.2,55.8,29.61,WSW,248,4.0,7.0,95,0.00,,,0.00,Wunderground v.1.15,2013-04-12 10:58:00,
2013-04-12 07:04:00,57.0,55.6,29.61,West,277,2.0,5.0,95,0.00,,,0.00,Wunderground v.1.15,2013-04-12 11:04:00,
2013-04-12 07:09:00,56.7,54.7,29.61,SW,236,3.0,10.0,93,0.00,,,0.00,Wunderground v.1.15,2013-04-12 11:09:00,
2013-04-12 07:14:00,56.6,54.6,29.62,WSW,240,10.0,10.0,93,0.00,,,0.00,Wunderground v.1.15,2013-04-12 11:14:00,
2013-04-12 07:19:00,56.5,54.5,29.62,West,270,0.0,10.0,93,0.00,,,0.00,Wunderground v.1.15,2013-04-12 11:19:00,
2013-04-12 07:26:00,56.5,54.2,29.62,SW,232,3.0,3.0,92,0.00,,,0.00,Wunderground v.1.15,2013-04-12 11:26:00,
2013-04-12 07:31:00,56.5,53.9,29.63,WNW,289,0.0,5.0,91,0.00,,,0.00,Wunderground v.1.15,2013-04-12 11:31:00,
2013-04-12 07:37:00,56.6,53.4,29.63,West,260,0.0,9.0,89,0.00,,,0.00,Wunderground v.1.15,2013-04-12 11:37:00,
2013-04-12 07:42:00,56.6,53.7,29.63,NW,318,0.0,9.0,90,0.00,,,0.00,Wunderground v.1.15,2013-04-12 11:42:00,
2013-04-12 07:47:00,56.6,53.4,29.63,WNW,287,3.0,3.0,89,0.00,,,0.00,Wunderground v.1.15,2013-04-12 11:47:00,
2013-04-12 07:52:00,56.7,53.5,29.63,WNW,284,5.0,5.0,89,0.00,,,0.00,Wunderground v.1.15,2013-04-12 11:52:00,
2013-04-12 07:57:00,56.7,52.9,29.63,WSW,240,3.0,5.0,87,0.00,,,0.00,Wunderground v.1.15,2013-04-12 11:57:00,
2013-04-12 08:03:00,56.7,52.9,29.64,WSW,237,2.0,6.0,87,0.00,,,0.00,Wunderground v.1.15,2013-04-12 12:03:00,
2013-04-12 08:08:00,56.6,52.1,29.64,West,265,2.0,7.0,85,0.00,,,0.00,Wunderground v.1.15,2013-04-12 12:08:00,
2013-04-12 08:13:00,56.9,53.4,29.64,SSW,210,2.0,12.0,88,0.00,,,0.00,Wunderground v.1.15,2013-04-12 12:13:00,
2013-04-12 08:18:00,56.9,51.5,29.64,West,275,16.0,17.0,82,0.00,,,0.00,Wunderground v.1.15,2013-04-12 12:18:00,
2013-04-12 08:23:00,57.0,51.9,29.64,WSW,247,5.0,17.0,83,0.00,,,0.00,Wunderground v.1.15,2013-04-12 12:23:00,
2013-04-12 08:28:00,57.0,52.2,29.65,WSW,253,7.0,12.0,84,0.00,,,0.00,Wunderground v.1.15,2013-04-12 12:28:00,
2013-04-12 08:33:00,56.9,51.8,29.65,West,270,2.0,12.0,83,0.00,,,0.00,Wunderground v.1.15,2013-04-12 12:33:00,
2013-04-12 08:38:00,57.0,52.2,29.65,WSW,243,6.0,7.0,84,0.00,,,0.00,Wunderground v.1.15,2013-04-12 12:38:00,
2013-04-12 08:43:00,57.0,51.2,29.66,WNW,288,12.0,14.0,81,0.00,,,0.00,Wunderground v.1.15,2013-04-12 12:43:00,
2013-04-12 08:48:00,57.2,52.4,29.66,West,270,0.0,6.0,84,0.00,,,0.00,Wunderground v.1.15,2013-04-12 12:48:00,
2013-04-12 08:53:00,57.3,52.5,29.66,NW,305,0.0,6.0,84,0.00,,,0.00,Wunderground v.1.15,2013-04-12 12:53:00,
2013-04-12 08:59:00,57.8,52.7,29.66,WSW,248,7.0,8.0,83,0.00,,,0.00,Wunderground v.1.15,2013-04-12 12:59:00,
2013-04-12 09:04:00,58.3,52.5,29.66,SSW,193,0.0,1.0,81,0.00,,,0.00,Wunderground v.1.15,2013-04-12 13:04:00,
2013-04-12 09:09:00,58.4,52.9,29.66,East,88,0.0,1.0,82,0.00,,,0.00,Wunderground v.1.15,2013-04-12 13:09:00,
2013-04-12 09:16:00,58.4,51.9,29.66,SW,236,2.0,2.0,79,0.00,,,0.00,Wunderground v.1.15,2013-04-12 13:16:00,
2013-04-12 09:21:00,58.3,52.2,29.66,South,186,0.0,6.0,80,0.00,,,0.00,Wunderground v.1.15,2013-04-12 13:21:00,
2013-04-12 09:26:00,58.1,51.3,29.66,WSW,253,0.0,1.0,78,0.00,,,0.00,Wunderground v.1.15,2013-04-12 13:26:00,
2013-04-12 09:31:00,58.0,51.5,29.66,SSW,202,0.0,6.0,79,0.00,,,0.00,Wunderground v.1.15,2013-04-12 13:31:00,
2013-04-12 09:36:00,57.8,51.0,29.66,WSW,251,4.0,5.0,78,0.00,,,0.00,Wunderground v.1.15,2013-04-12 13:36:00,
2013-04-12 09:42:00,57.8,51.0,29.66,ENE,76,0.0,5.0,78,0.00,,,0.00,Wunderground v.1.15,2013-04-12 13:42:00,
2013-04-12 09:47:00,58.0,50.5,29.66,West,275,3.0,7.0,76,0.00,,,0.00,Wunderground v.1.15,2013-04-12 13:47:00,
2013-04-12 09:52:00,57.8,50.3,29.66,West,277,2.0,13.0,76,0.00,,,0.00,Wunderground v.1.15,2013-04-12 13:52:00,
2013-04-12 09:57:00,58.3,50.8,29.66,West,274,14.0,14.0,76,0.00,,,0.00,Wunderground v.1.15,2013-04-12 13:57:00,
2013-04-12 10:02:00,58.9,51.7,29.66,NW,312,2.0,14.0,77,0.00,,,0.00,Wunderground v.1.15,2013-04-12 14:02:00,
2013-04-12 10:08:00,59.3,47.9,29.66,SSW,212,6.0,13.0,66,0.00,,,0.00,Wunderground v.1.15,2013-04-12 14:08:00,
2013-04-12 10:13:00,59.9,50.8,29.66,NW,306,5.0,13.0,72,0.00,,,0.00,Wunderground v.1.15,2013-04-12 14:13:00,
2013-04-12 10:18:00,60.4,50.2,29.67,WSW,246,0.0,5.0,69,0.00,,,0.00,Wunderground v.1.15,2013-04-12 14:18:00,
2013-04-12 10:23:00,61.2,50.9,29.67,WSW,237,1.0,7.0,69,0.00,,,0.00,Wunderground v.1.15,2013-04-12 14:23:00,
2013-04-12 10:28:00,61.5,49.6,29.66,WSW,250,2.0,5.0,65,0.00,,,0.00,Wunderground v.1.15,2013-04-12 14:28:00,
2013-04-12 10:34:00,61.8,48.6,29.66,West,268,8.0,8.0,62,0.00,,,0.00,Wunderground v.1.15,2013-04-12 14:34:00,
2013-04-12 10:39:00,61.5,45.7,29.66,WSW,246,5.0,12.0,56,0.00,,,0.00,Wunderground v.1.15,2013-04-12 14:39:00,
2013-04-12 10:44:00,61.8,47.8,29.67,West,271,8.0,12.0,60,0.00,,,0.00,Wunderground v.1.15,2013-04-12 14:44:00,
2013-04-12 10:49:00,62.1,50.2,29.67,WSW,248,7.0,7.0,65,0.00,,,0.00,Wunderground v.1.15,2013-04-12 14:49:00,
2013-04-12 10:56:00,62.6,48.1,29.67,West,270,4.0,4.0,59,0.00,,,0.00,Wunderground v.1.15,2013-04-12 14:56:00,
2013-04-12 11:02:00,62.3,47.8,29.67,West,264,3.0,12.0,59,0.00,,,0.00,Wunderground v.1.15,2013-04-12 15:02:00,
2013-04-12 11:07:00,62.7,48.6,29.67,WSW,237,6.0,7.0,60,0.00,,,0.00,Wunderground v.1.15,2013-04-12 15:07:00,
2013-04-12 11:12:00,62.7,45.3,29.67,ENE,66,5.0,11.0,53,0.00,,,0.00,Wunderground v.1.15,2013-04-12 15:12:00,
2013-04-12 11:17:00,63.1,43.6,29.66,SSE,151,3.0,6.0,49,0.00,,,0.00,Wunderground v.1.15,2013-04-12 15:17:00,
2013-04-12 11:22:00,63.7,48.2,29.66,West,268,2.0,9.0,57,0.00,,,0.00,Wunderground v.1.15,2013-04-12 15:22:00,
2013-04-12 11:27:00,64.2,48.2,29.66,West,261,6.0,6.0,56,0.00,,,0.00,Wunderground v.1.15,2013-04-12 15:27:00,
2013-04-12 11:33:00,64.3,46.8,29.67,WSW,256,2.0,6.0,53,0.00,,,0.00,Wunderground v.1.15,2013-04-12 15:33:00,
2013-04-12 11:38:00,64.5,44.4,29.67,WSW,257,5.0,5.0,48,0.00,,,0.00,Wunderground v.1.15,2013-04-12 15:38:00,
2013-04-12 11:43:00,64.8,46.8,29.67,West,265,7.0,8.0,52,0.00,,,0.00,Wunderground v.1.15,2013-04-12 15:43:00,
2013-04-12 11:48:00,65.2,46.1,29.67,West,270,7.0,11.0,50,0.00,,,0.00,Wunderground v.1.15,2013-04-12 15:48:00,
2013-04-12 11:53:00,64.8,44.6,29.67,WSW,254,2.0,13.0,48,0.00,,,0.00,Wunderground v.1.15,2013-04-12 15:53:00,
2013-04-12 11:58:00,65.3,44.0,29.67,SW,223,11.0,11.0,46,0.00,,,0.00,Wunderground v.1.15,2013-04-12 15:58:00,
2013-04-12 12:04:00,65.2,45.0,29.67,West,265,0.0,4.0,48,0.00,,,0.00,Wunderground v.1.15,2013-04-12 16:04:00,
2013-04-12 12:09:00,65.2,42.7,29.67,WNW,301,3.0,11.0,44,0.00,,,0.00,Wunderground v.1.15,2013-04-12 16:09:00,
2013-04-12 12:16:00,66.0,43.5,29.67,West,270,1.0,4.0,44,0.00,,,0.00,Wunderground v.1.15,2013-04-12 16:16:00,
2013-04-12 12:21:00,66.3,38.5,29.67,WSW,239,7.0,13.0,36,0.00,,,0.00,Wunderground v.1.15,2013-04-12 16:21:00,
2013-04-12 12:27:00,66.3,43.1,29.67,NNW,333,6.0,6.0,43,0.00,,,0.00,Wunderground v.1.15,2013-04-12 16:27:00,
2013-04-12 12:32:00,66.3,39.9,29.68,WSW,258,5.0,8.0,38,0.00,,,0.00,Wunderground v.1.15,2013-04-12 16:32:00,
2013-04-12 12:37:00,67.1,39.9,29.68,West,275,4.0,12.0,37,0.00,,,0.00,Wunderground v.1.15,2013-04-12 16:37:00,
2013-04-12 12:43:00,67.3,43.4,29.67,WSW,248,0.0,12.0,42,0.00,,,0.00,Wunderground v.1.15,2013-04-12 16:43:00,
2013-04-12 12:48:00,67.9,38.5,29.67,West,275,12.0,12.0,34,0.00,,,0.00,Wunderground v.1.15,2013-04-12 16:48:00,
2013-04-12 12:53:00,67.6,39.0,29.67,West,268,6.0,12.0,35,0.00,,,0.00,Wunderground v.1.15,2013-04-12 16:53:00,
2013-04-12 12:58:00,68.1,39.4,29.67,WSW,241,1.0,6.0,35,0.00,,,0.00,Wunderground v.1.15,2013-04-12 16:58:00,
2013-04-12 13:03:00,68.6,37.5,29.67,West,260,4.0,10.0,32,0.00,,,0.00,Wunderground v.1.15,2013-04-12 17:03:00,
2013-04-12 13:08:00,68.4,37.4,29.67,WSW,256,7.0,10.0,32,0.00,,,0.00,Wunderground v.1.15,2013-04-12 17:08:00,
2013-04-12 13:13:00,67.8,36.0,29.67,WSW,246,0.0,10.0,31,0.00,,,0.00,Wunderground v.1.15,2013-04-12 17:13:00,
2013-04-12 13:18:00,67.4,35.7,29.67,SW,220,2.0,8.0,31,0.00,,,0.00,Wunderground v.1.15,2013-04-12 17:18:00,
2013-04-12 13:24:00,67.9,32.7,29.67,WSW,244,5.0,8.0,27,0.00,,,0.00,Wunderground v.1.15,2013-04-12 17:24:00,
2013-04-12 13:29:00,68.6,35.1,29.67,West,275,3.0,10.0,29,0.00,,,0.00,Wunderground v.1.15,2013-04-12 17:29:00,
2013-04-12 13:34:00,68.6,35.1,29.67,SSW,206,0.0,11.0,29,0.00,,,0.00,Wunderground v.1.15,2013-04-12 17:34:00,
2013-04-12 13:39:00,68.9,37.8,29.67,WNW,284,8.0,8.0,32,0.00,,,0.00,Wunderground v.1.15,2013-04-12 17:39:00,
2013-04-12 13:44:00,68.6,39.1,29.67,WSW,248,8.0,13.0,34,0.00,,,0.00,Wunderground v.1.15,2013-04-12 17:44:00,
2013-04-12 13:49:00,68.6,41.3,29.67,WSW,257,6.0,9.0,37,0.00,,,0.00,Wunderground v.1.15,2013-04-12 17:49:00,
2013-04-12 13:56:00,69.3,38.2,29.67,SW,226,5.0,5.0,32,0.00,,,0.00,Wunderground v.1.15,2013-04-12 17:56:00,
2013-04-12 14:02:00,69.8,40.2,29.67,SW,222,2.0,12.0,34,0.00,,,0.00,Wunderground v.1.15,2013-04-12 18:02:00,
2013-04-12 14:07:00,69.6,34.1,29.67,SW,216,5.0,7.0,27,0.00,,,0.00,Wunderground v.1.15,2013-04-12 18:07:00,
2013-04-12 14:12:00,70.1,37.2,29.67,West,265,10.0,10.0,30,0.00,,,0.00,Wunderground v.1.15,2013-04-12 18:12:00,
2013-04-12 14:17:00,70.4,35.7,29.67,West,281,11.0,11.0,28,0.00,,,0.00,Wunderground v.1.15,2013-04-12 18:17:00,
2013-04-12 14:23:00,69.8,37.8,29.67,West,265,7.0,14.0,31,0.00,,,0.00,Wunderground v.1.15,2013-04-12 18:23:00,
2013-04-12 14:29:00,70.1,38.0,29.67,WNW,287,10.0,14.0,31,0.00,,,0.00,Wunderground v.1.15,2013-04-12 18:29:00,
2013-04-12 15:26:00,70.4,35.7,29.68,SW,227,3.0,3.0,28,0.00,,,0.00,Wunderground v.1.15,2013-04-12 19:26:00,
2013-04-12 15:27:00,70.4,34.8,29.68,SW,220,3.0,3.0,27,0.00,,,0.00,Wunderground v.1.15,2013-04-12 19:27:00,
2013-04-12 15:28:00,70.4,36.6,29.67,SSW,199,0.0,3.0,29,0.00,,,0.00,Wunderground v.1.15,2013-04-12 19:28:00,
2013-04-12 15:33:00,70.3,34.7,29.67,SW,217,6.0,7.0,27,0.00,,,0.00,Wunderground v.1.15,2013-04-12 19:33:00,
2013-04-12 15:38:00,69.9,34.4,29.67,South,184,0.0,9.0,27,0.00,,,0.00,Wunderground v.1.15,2013-04-12 19:38:00,
2013-04-12 15:43:00,70.3,34.7,29.68,SW,232,0.0,9.0,27,0.00,,,0.00,Wunderground v.1.15,2013-04-12 19:43:00,
2013-04-12 15:48:00,70.1,31.6,29.68,South,184,0.0,1.0,24,0.00,,,0.00,Wunderground v.1.15,2013-04-12 19:48:00,
2013-04-12 15:53:00,69.8,32.4,29.68,East,85,0.0,4.0,25,0.00,,,0.00,Wunderground v.1.15,2013-04-12 19:53:00,
2013-04-12 15:59:00,69.1,33.7,29.68,North,349,2.0,5.0,27,0.00,,,0.00,Wunderground v.1.15,2013-04-12 19:59:00,
2013-04-12 16:04:00,68.1,33.7,29.68,East,92,0.0,4.0,28,0.00,,,0.00,Wunderground v.1.15,2013-04-12 20:04:00,
2013-04-12 16:09:00,67.4,33.1,29.68,ESE,112,0.0,4.0,28,0.00,,,0.00,Wunderground v.1.15,2013-04-12 20:09:00,
2013-04-12 16:14:00,67.8,36.8,29.67,WSW,247,0.0,6.0,32,0.00,,,0.00,Wunderground v.1.15,2013-04-12 20:14:00,
2013-04-12 16:19:00,68.3,33.0,29.67,North,356,0.0,6.0,27,0.00,,,0.00,Wunderground v.1.15,2013-04-12 20:19:00,
2013-04-12 16:26:00,69.4,35.7,29.67,SSW,199,6.0,6.0,29,0.00,,,0.00,Wunderground v.1.15,2013-04-12 20:26:00,
2013-04-12 16:31:00,70.3,38.2,29.67,West,278,2.0,7.0,31,0.00,,,0.00,Wunderground v.1.15,2013-04-12 20:31:00,
2013-04-12 16:36:00,70.3,35.6,29.67,West,272,0.0,5.0,28,0.00,,,0.00,Wunderground v.1.15,2013-04-12 20:36:00,
2013-04-12 16:41:00,70.1,33.6,29.67,WNW,289,2.0,5.0,26,0.00,,,0.00,Wunderground v.1.15,2013-04-12 20:41:00,
2013-04-12 16:46:00,69.8,33.3,29.67,East,85,0.0,0.0,26,0.00,,,0.00,Wunderground v.1.15,2013-04-12 20:46:00,
2013-04-12 16:52:00,69.6,35.9,29.67,SW,215,0.0,4.0,29,0.00,,,0.00,Wunderground v.1.15,2013-04-12 20:52:00,
2013-04-12 16:57:00,69.8,36.9,29.67,West,261,0.0,1.0,30,0.00,,,0.00,Wunderground v.1.15,2013-04-12 20:57:00,
2013-04-12 17:03:00,69.9,35.3,29.68,WSW,256,0.0,7.0,28,0.00,,,0.00,Wunderground v.1.15,2013-04-12 21:03:00,
2013-04-12 17:08:00,69.6,35.9,29.68,WSW,239,0.0,6.0,29,0.00,,,0.00,Wunderground v.1.15,2013-04-12 21:08:00,
2013-04-12 17:13:00,69.6,35.9,29.69,WSW,257,0.0,6.0,29,0.00,,,0.00,Wunderground v.1.15,2013-04-12 21:13:00,
2013-04-12 17:18:00,69.6,35.9,29.69,SSW,193,0.0,2.0,29,0.00,,,0.00,Wunderground v.1.15,2013-04-12 21:18:00,
2013-04-12 17:25:00,69.1,35.5,29.69,SW,217,0.0,6.0,29,0.00,,,0.00,Wunderground v.1.15,2013-04-12 21:25:00,
2013-04-12 17:31:00,68.4,33.1,29.69,North,359,0.0,13.0,27,0.00,,,0.00,Wunderground v.1.15,2013-04-12 21:31:00,
2013-04-12 17:36:00,67.8,33.5,29.69,West,281,0.0,4.0,28,0.00,,,0.00,Wunderground v.1.15,2013-04-12 21:36:00,
2013-04-12 17:41:00,67.3,35.6,29.69,South,184,0.0,11.0,31,0.00,,,0.00,Wunderground v.1.15,2013-04-12 21:41:00,
2013-04-12 17:46:00,67.3,33.9,29.69,West,275,3.0,3.0,29,0.00,,,0.00,Wunderground v.1.15,2013-04-12 21:46:00,
2013-04-12 17:51:00,67.3,33.9,29.69,NW,306,6.0,6.0,29,0.00,,,0.00,Wunderground v.1.15,2013-04-12 21:51:00,
2013-04-12 17:57:00,67.1,35.4,29.69,West,270,2.0,5.0,31,0.00,,,0.00,Wunderground v.1.15,2013-04-12 21:57:00,
2013-04-12 18:02:00,66.9,36.1,29.69,WSW,248,3.0,9.0,32,0.00,,,0.00,Wunderground v.1.15,2013-04-12 22:02:00,
2013-04-12 18:07:00,66.8,34.3,29.69,WSW,250,0.0,7.0,30,0.00,,,0.00,Wunderground v.1.15,2013-04-12 22:07:00,
2013-04-12 18:12:00,66.3,33.1,29.69,SW,232,11.0,11.0,29,0.00,,,0.00,Wunderground v.1.15,2013-04-12 22:12:00,
2013-04-12 18:17:00,65.3,33.9,29.70,SW,230,0.0,4.0,31,0.00,,,0.00,Wunderground v.1.15,2013-04-12 22:17:00,
2013-04-12 18:23:00,65.2,35.4,29.70,WSW,237,2.0,4.0,33,0.00,,,0.00,Wunderground v.1.15,2013-04-12 22:23:00,
2013-04-12 18:28:00,65.5,35.6,29.70,WSW,248,0.0,4.0,33,0.00,,,0.00,Wunderground v.1.15,2013-04-12 22:28:00,
2013-04-12 18:33:00,65.5,36.4,29.70,NW,309,6.0,6.0,34,0.00,,,0.00,Wunderground v.1.15,2013-04-12 22:33:00,
2013-04-12 18:38:00,65.5,36.4,29.70,West,281,0.0,6.0,34,0.00,,,0.00,Wunderground v.1.15,2013-04-12 22:38:00,
2013-04-12 18:43:00,65.5,37.8,29.70,WSW,237,0.0,6.0,36,0.00,,,0.00,Wunderground v.1.15,2013-04-12 22:43:00,
2013-04-12 18:49:00,65.3,37.6,29.70,WSW,257,0.0,5.0,36,0.00,,,0.00,Wunderground v.1.15,2013-04-12 22:49:00,
2013-04-12 18:54:00,65.2,36.8,29.70,West,271,3.0,6.0,35,0.00,,,0.00,Wunderground v.1.15,2013-04-12 22:54:00,
2013-04-12 18:59:00,64.5,36.9,29.71,West,277,2.0,7.0,36,0.00,,,0.00,Wunderground v.1.15,2013-04-12 22:59:00,
2013-04-12 19:04:00,64.0,39.2,29.71,West,260,0.0,2.0,40,0.00,,,0.00,Wunderground v.1.15,2013-04-12 23:04:00,
2013-04-12 19:11:00,63.2,38.5,29.71,WSW,258,0.0,2.0,40,0.00,,,0.00,Wunderground v.1.15,2013-04-12 23:11:00,
2013-04-12 19:16:00,62.7,38.6,29.72,West,261,0.0,8.0,41,0.00,,,0.00,Wunderground v.1.15,2013-04-12 23:16:00,
2013-04-12 19:21:00,62.4,35.8,29.72,WSW,246,0.0,8.0,37,0.00,,,0.00,Wunderground v.1.15,2013-04-12 23:21:00,
2013-04-12 19:27:00,62.0,36.1,29.72,WSW,248,0.0,0.0,38,0.00,,,0.00,Wunderground v.1.15,2013-04-12 23:27:00,
2013-04-12 19:32:00,61.3,36.8,29.74,NNW,336,0.0,3.0,40,0.00,,,0.00,Wunderground v.1.15,2013-04-12 23:32:00,
2013-04-12 19:37:00,60.7,36.8,29.74,West,260,0.0,0.0,41,0.00,,,0.00,Wunderground v.1.15,2013-04-12 23:37:00,
2013-04-12 19:42:00,60.1,36.9,29.74,NW,312,0.0,3.0,42,0.00,,,0.00,Wunderground v.1.15,2013-04-12 23:42:00,
2013-04-12 19:47:00,59.3,36.8,29.75,WNW,298,0.0,1.0,43,0.00,,,0.00,Wunderground v.1.15,2013-04-12 23:47:00,
2013-04-12 19:52:00,58.7,36.8,29.75,WSW,241,0.0,7.0,44,0.00,,,0.00,Wunderground v.1.15,2013-04-12 23:52:00,
2013-04-12 19:57:00,58.1,37.4,29.75,West,260,0.0,0.0,46,0.00,,,0.00,Wunderground v.1.15,2013-04-12 23:57:00,
2013-04-12 20:03:00,57.3,36.7,29.75,WNW,284,0.0,5.0,46,0.00,,,0.00,Wunderground v.1.15,2013-04-13 00:03:00,
2013-04-12 20:08:00,56.9,36.9,29.75,SSW,192,0.0,0.0,47,0.00,,,0.00,Wunderground v.1.15,2013-04-13 00:08:00,
2013-04-12 20:13:00,56.3,36.3,29.76,South,182,0.0,0.0,47,0.00,,,0.00,Wunderground v.1.15,2013-04-13 00:13:00,
2013-04-12 20:18:00,56.0,36.0,29.76,South,182,0.0,0.0,47,0.00,,,0.00,Wunderground v.1.15,2013-04-13 00:18:00,
2013-04-12 20:23:00,55.7,36.3,29.76,South,182,0.0,0.0,48,0.00,,,0.00,Wunderground v.1.15,2013-04-13 00:23:00,
2013-04-12 20:28:00,55.4,36.0,29.77,NNW,328,0.0,2.0,48,0.00,,,0.00,Wunderground v.1.15,2013-04-13 00:28:00,
2013-04-12 20:33:00,55.3,35.9,29.77,NW,311,2.0,6.0,48,0.00,,,0.00,Wunderground v.1.15,2013-04-13 00:33:00,
2013-04-12 20:38:00,55.1,35.7,29.77,NW,311,0.0,1.0,48,0.00,,,0.00,Wunderground v.1.15,2013-04-13 00:38:00,
2013-04-12 20:44:00,55.0,36.2,29.79,NNW,329,3.0,3.0,49,0.00,,,0.00,Wunderground v.1.15,2013-04-13 00:44:00,
2013-04-12 20:49:00,54.8,36.0,29.79,WNW,295,0.0,0.0,49,0.00,,,0.00,Wunderground v.1.15,2013-04-13 00:49:00,
2013-04-12 20:54:00,54.7,35.9,29.79,NW,304,0.0,3.0,49,0.00,,,0.00,Wunderground v.1.15,2013-04-13 00:54:00,
2013-04-12 20:59:00,54.5,35.7,29.79,NW,304,0.0,0.0,49,0.00,,,0.00,Wunderground v.1.15,2013-04-13 00:59:00,
2013-04-12 21:06:00,54.4,35.6,29.79,NW,304,0.0,0.0,49,0.00,,,0.00,Wunderground v.1.15,2013-04-13 01:06:00,
2013-04-12 21:12:00,54.1,35.9,29.79,WSW,240,2.0,2.0,50,0.00,,,0.00,Wunderground v.1.15,2013-04-13 01:12:00,
2013-04-12 21:17:00,53.9,36.7,29.81,North,357,0.0,4.0,52,0.00,,,0.00,Wunderground v.1.15,2013-04-13 01:17:00,
2013-04-12 21:22:00,53.6,37.3,29.81,North,359,0.0,4.0,54,0.00,,,0.00,Wunderground v.1.15,2013-04-13 01:22:00,
2013-04-12 21:27:00,53.5,37.3,29.81,North,357,0.0,0.0,54,0.00,,,0.00,Wunderground v.1.15,2013-04-13 01:27:00,
2013-04-12 21:32:00,53.2,37.4,29.82,North,359,0.0,2.0,55,0.00,,,0.00,Wunderground v.1.15,2013-04-13 01:32:00,
2013-04-12 21:38:00,52.9,37.2,29.82,NNE,17,5.0,5.0,55,0.00,,,0.00,Wunderground v.1.15,2013-04-13 01:38:00,
2013-04-12 21:43:00,52.8,37.5,29.83,NNE,18,2.0,5.0,56,0.00,,,0.00,Wunderground v.1.15,2013-04-13 01:43:00,
2013-04-12 21:48:00,52.5,37.2,29.83,NNE,18,3.0,6.0,56,0.00,,,0.00,Wunderground v.1.15,2013-04-13 01:48:00,
2013-04-12 21:53:00,52.3,37.5,29.83,NNE,21,5.0,7.0,57,0.00,,,0.00,Wunderground v.1.15,2013-04-13 01:53:00,
2013-04-12 21:59:00,52.3,37.1,29.83,NNE,16,6.0,6.0,56,0.00,,,0.00,Wunderground v.1.15,2013-04-13 01:59:00,
2013-04-12 22:04:00,52.2,37.0,29.83,North,354,0.0,3.0,56,0.00,,,0.00,Wunderground v.1.15,2013-04-13 02:04:00,
2013-04-12 22:09:00,52.0,37.2,29.83,WNW,296,0.0,6.0,57,0.00,,,0.00,Wunderground v.1.15,2013-04-13 02:09:00,
2013-04-12 22:16:00,51.9,37.1,29.83,ENE,78,0.0,1.0,57,0.00,,,0.00,Wunderground v.1.15,2013-04-13 02:16:00,
2013-04-12 22:22:00,51.6,37.3,29.83,East,85,0.0,3.0,58,0.00,,,0.00,Wunderground v.1.15,2013-04-13 02:22:00,
2013-04-12 22:27:00,51.3,37.0,29.83,NE,51,3.0,3.0,58,0.00,,,0.00,Wunderground v.1.15,2013-04-13 02:27:00,
2013-04-12 22:32:00,51.1,37.3,29.84,ENE,68,3.0,7.0,59,0.00,,,0.00,Wunderground v.1.15,2013-04-13 02:32:00,
2013-04-12 22:37:00,51.1,36.8,29.84,ENE,66,2.0,3.0,58,0.00,,,0.00,Wunderground v.1.15,2013-04-13 02:37:00,
2013-04-12 22:42:00,51.1,36.8,29.84,ENE,61,1.0,4.0,58,0.00,,,0.00,Wunderground v.1.15,2013-04-13 02:42:00,
2013-04-12 22:47:00,51.0,36.7,29.84,ENE,72,3.0,5.0,58,0.00,,,0.00,Wunderground v.1.15,2013-04-13 02:47:00,
2013-04-12 22:52:00,50.8,36.1,29.84,NE,41,3.0,5.0,57,0.00,,,0.00,Wunderground v.1.15,2013-04-13 02:52:00,
2013-04-12 22:57:00,50.8,36.1,29.84,NE,51,0.0,5.0,57,0.00,,,0.00,Wunderground v.1.15,2013-04-13 02:57:00,
2013-04-12 23:02:00,50.7,36.5,29.84,ENE,78,0.0,5.0,58,0.00,,,0.00,Wunderground v.1.15,2013-04-13 03:02:00,
2013-04-12 23:07:00,50.5,36.3,29.84,NNE,16,3.0,3.0,58,0.00,,,0.00,Wunderground v.1.15,2013-04-13 03:07:00,
2013-04-12 23:12:00,50.5,36.7,29.84,East,83,6.0,6.0,59,0.00,,,0.00,Wunderground v.1.15,2013-04-13 03:12:00,
2013-04-12 23:18:00,50.4,36.2,29.82,ENE,73,6.0,6.0,58,0.00,,,0.00,Wunderground v.1.15,2013-04-13 03:18:00,
2013-04-12 23:23:00,50.4,36.2,29.82,NE,55,2.0,12.0,58,0.00,,,0.00,Wunderground v.1.15,2013-04-13 03:23:00,
2013-04-12 23:28:00,50.4,36.2,29.82,NE,55,7.0,7.0,58,0.00,,,0.00,Wunderground v.1.15,2013-04-13 03:28:00,
2013-04-12 23:33:00,50.2,36.4,29.82,ENE,68,4.0,7.0,59,0.00,,,0.00,Wunderground v.1.15,2013-04-13 03:33:00,
2013-04-12 23:38:00,50.2,36.0,29.82,NNE,13,7.0,7.0,58,0.00,,,0.00,Wunderground v.1.15,2013-04-13 03:38:00,
2013-04-12 23:43:00,50.2,36.0,29.82,ENE,61,4.0,8.0,58,0.00,,,0.00,Wunderground v.1.15,2013-04-13 03:43:00,
2013-04-12 23:48:00,50.1,36.3,29.82,NE,51,6.0,8.0,59,0.00,,,0.00,Wunderground v.1.15,2013-04-13 03:48:00,
2013-04-12 23:54:00,49.9,36.1,29.82,NE,41,6.0,6.0,59,0.00,,,0.00,Wunderground v.1.15,2013-04-13 03:54:00,
2013-04-12 23:59:00,49.9,36.1,29.82,ENE,69,1.0,9.0,59,0.00,,,0.00,Wunderground v.1.15,2013-04-13 03:59:00,